createdAt,value
2023-04-15T04:03:22.127Z,4.20
2023-04-15T04:05:53.385Z,4.60
2023-04-15T04:08:22.086Z,4.30
2023-04-15T04:10:50.404Z,3.90
2023-04-15T04:13:18.554Z,3.60
2023-04-15T04:15:47.265Z,3.30
2023-04-15T04:18:16.396Z,3.40
2023-04-15T04:20:44.513Z,3.70
2023-04-15T04:23:14.223Z,3.50
2023-04-15T04:25:42.780Z,3.60
2023-04-15T04:28:11.753Z,3.30
2023-04-15T04:30:40.060Z,3.30
2023-04-15T04:33:08.690Z,3.30
2023-04-15T04:35:37.871Z,3.30
2023-04-15T04:38:06.469Z,3.00
2023-04-15T04:40:36.313Z,3.10
2023-04-15T04:43:04.460Z,3.50
2023-04-15T04:45:32.851Z,3.50
2023-04-15T04:48:02.849Z,3.40
2023-04-15T04:50:31.305Z,3.10
2023-04-15T04:52:59.850Z,2.80
2023-04-15T04:55:28.572Z,2.70
2023-04-15T04:57:58.244Z,2.80
2023-04-15T05:00:26.563Z,3.00
2023-04-15T05:02:54.864Z,3.00
2023-04-15T05:05:23.481Z,3.00
2023-04-15T05:07:51.902Z,3.20
2023-04-15T05:10:20.093Z,3.10
2023-04-15T05:12:48.255Z,3.30
2023-04-15T05:15:18.113Z,3.60
2023-04-15T05:17:46.855Z,3.70
2023-04-15T05:20:15.694Z,4.00
2023-04-15T05:22:43.812Z,3.80
2023-04-15T05:25:12.509Z,3.60
2023-04-15T05:27:40.662Z,3.30
2023-04-15T05:30:12.078Z,3.20
2023-04-15T05:32:43.018Z,3.20
2023-04-15T05:35:11.891Z,3.20
2023-04-15T05:37:40.352Z,3.40
2023-04-15T05:40:10.792Z,3.30
2023-04-15T05:42:39.002Z,3.20
2023-04-15T05:45:09.424Z,3.00
2023-04-15T05:47:38.572Z,3.00
2023-04-15T05:50:09.676Z,2.90
2023-04-15T05:52:38.730Z,3.00
2023-04-15T05:55:07.538Z,3.10
2023-04-15T05:57:35.864Z,3.40
2023-04-15T06:00:05.255Z,3.50
2023-04-15T06:02:33.586Z,4.00
2023-04-15T06:05:02.322Z,4.20
2023-04-15T06:07:32.328Z,4.40
2023-04-15T06:10:00.461Z,4.60
2023-04-15T06:12:29.091Z,4.70
2023-04-15T06:14:59.939Z,4.80
2023-04-15T06:17:28.502Z,4.90
2023-04-15T06:19:56.723Z,4.60
2023-04-15T06:22:25.160Z,4.30
2023-04-15T06:24:54.862Z,4.10
2023-04-15T06:27:23.424Z,4.00
2023-04-15T06:29:51.673Z,4.00
2023-04-15T06:32:19.876Z,4.00
2023-04-15T06:34:48.098Z,4.00
2023-04-15T06:37:16.712Z,4.10
2023-04-15T06:39:45.819Z,4.20
2023-04-15T06:42:16.028Z,4.30
2023-04-15T06:44:44.233Z,4.50
2023-04-15T06:47:13.289Z,4.80
2023-04-15T06:49:41.623Z,5.30
2023-04-15T06:52:10.304Z,5.50
2023-04-15T06:54:38.683Z,5.70
2023-04-15T06:57:09.304Z,5.80
2023-04-15T06:59:39.573Z,6.00
2023-04-15T07:02:09.566Z,6.10
2023-04-15T07:04:38.196Z,6.20
2023-04-15T07:07:06.519Z,6.30
2023-04-15T07:09:34.719Z,6.40
2023-04-15T07:12:02.892Z,6.40
2023-04-15T07:14:32.255Z,6.50
2023-04-15T07:17:02.304Z,6.60
2023-04-15T07:19:30.539Z,6.50
2023-04-15T07:21:59.139Z,6.50
2023-04-15T07:24:28.140Z,6.60
2023-04-15T07:26:59.434Z,6.60
2023-04-15T07:29:29.281Z,6.70
2023-04-15T07:31:58.131Z,6.90
2023-04-15T07:34:27.837Z,7.10
2023-04-15T07:36:56.443Z,7.10
2023-04-15T07:39:24.888Z,7.10
2023-04-15T07:41:53.383Z,7.20
2023-04-15T07:44:21.812Z,7.20
2023-04-15T07:46:49.940Z,7.00
2023-04-15T07:49:19.601Z,7.20
2023-04-15T07:51:49.303Z,7.40
2023-04-15T07:54:17.838Z,7.40
2023-04-15T07:56:46.169Z,7.40
2023-04-15T07:59:15.444Z,7.60
2023-04-15T08:01:44.152Z,7.70
2023-04-15T08:04:12.614Z,7.70
2023-04-15T08:06:41.198Z,7.70
2023-04-15T08:09:11.168Z,7.80
2023-04-15T08:11:39.332Z,7.90
2023-04-15T08:14:07.768Z,7.90
2023-04-15T08:16:36.124Z,7.90
2023-04-15T08:19:04.859Z,8.00
2023-04-15T08:21:33.185Z,8.10
2023-04-15T08:24:01.742Z,8.30
2023-04-15T08:26:31.654Z,8.50
2023-04-15T08:29:00.281Z,8.50
2023-04-15T08:31:30.278Z,8.60
2023-04-15T08:33:59.759Z,8.70
2023-04-15T08:36:28.648Z,8.70
2023-04-15T08:38:57.082Z,8.80
2023-04-15T08:41:26.481Z,9.00
2023-04-15T08:43:59.069Z,9.10
2023-04-15T08:46:27.901Z,9.10
2023-04-15T08:48:59.357Z,9.20
2023-04-15T08:51:28.328Z,9.10
2023-04-15T08:53:56.646Z,9.00
2023-04-15T08:56:27.082Z,9.20
2023-04-15T08:58:57.039Z,9.20
2023-04-15T09:01:25.354Z,9.20
2023-04-15T09:03:55.666Z,9.40
2023-04-15T09:06:24.920Z,9.40
2023-04-15T09:08:53.835Z,9.40
2023-04-15T09:11:23.548Z,9.40
2023-04-15T09:13:52.807Z,9.40
2023-04-15T09:16:22.746Z,9.60
2023-04-15T09:18:50.836Z,9.50
2023-04-15T09:21:19.411Z,9.60
2023-04-15T09:23:58.253Z,9.50
2023-04-15T09:26:34.461Z,9.50
2023-04-15T09:29:08.128Z,9.60
2023-04-15T09:31:38.403Z,9.50
2023-04-15T09:34:07.339Z,9.40
2023-04-15T09:36:54.970Z,9.50
2023-04-15T09:39:23.529Z,9.50
2023-04-15T09:42:08.100Z,9.50
2023-04-15T09:44:36.810Z,9.40
2023-04-15T09:47:06.755Z,9.40
2023-04-15T09:49:34.990Z,9.60
2023-04-15T09:52:05.762Z,9.50
2023-04-15T09:54:36.535Z,9.50
2023-04-15T09:57:09.267Z,9.50
2023-04-15T09:59:37.714Z,9.60
2023-04-15T10:02:08.815Z,9.60
2023-04-15T10:04:39.856Z,9.60
2023-04-15T10:07:10.094Z,9.80
2023-04-15T10:09:39.910Z,9.90
2023-04-15T10:12:08.040Z,9.80
2023-04-15T10:14:38.727Z,9.80
2023-04-15T10:17:09.499Z,9.90
2023-04-15T10:19:39.014Z,9.80
2023-04-15T10:22:08.207Z,9.70
2023-04-15T10:24:37.543Z,9.70
2023-04-15T10:27:06.454Z,9.80
2023-04-15T10:29:36.320Z,9.80
2023-04-15T10:32:04.888Z,9.80
2023-04-15T10:34:35.551Z,9.80
2023-04-15T10:37:04.847Z,9.70
2023-04-15T10:39:44.487Z,9.90
2023-04-15T10:42:13.809Z,9.80
2023-04-15T10:44:44.638Z,9.80
2023-04-15T10:47:13.962Z,9.80
2023-04-15T10:49:49.425Z,9.70
2023-04-15T10:52:18.832Z,9.80
2023-04-15T10:54:47.697Z,9.80
2023-04-15T10:57:18.823Z,9.90
2023-04-15T11:00:06.711Z,9.90
2023-04-15T11:02:48.524Z,9.70
2023-04-15T11:05:19.231Z,9.60
2023-04-15T11:07:55.678Z,9.60
2023-04-15T11:10:55.143Z,9.50
2023-04-15T11:13:37.587Z,9.50
2023-04-15T11:16:06.598Z,9.50
2023-04-15T11:18:35.667Z,9.50
2023-04-15T11:21:07.210Z,9.60
2023-04-15T11:23:37.835Z,9.50
2023-04-15T11:26:09.857Z,9.50
2023-04-15T11:28:40.199Z,9.50
2023-04-15T11:31:10.940Z,9.50
2023-04-15T11:33:40.706Z,9.60
2023-04-15T11:36:12.668Z,9.60
2023-04-15T11:38:45.179Z,9.60
2023-04-15T11:41:13.553Z,9.60
2023-04-15T11:43:41.925Z,9.50
2023-04-15T11:46:10.413Z,9.50
2023-04-15T11:48:43.400Z,9.40
2023-04-15T11:51:13.924Z,9.40
2023-04-15T11:53:43.808Z,9.50
2023-04-15T11:56:13.516Z,9.50
2023-04-15T11:58:42.598Z,9.40
2023-04-15T12:01:11.268Z,9.50
2023-04-15T12:03:41.130Z,9.50
2023-04-15T12:06:19.616Z,9.60
2023-04-15T12:09:10.693Z,9.50
2023-04-15T12:11:43.969Z,9.40
2023-04-15T12:14:14.907Z,9.40
2023-04-15T12:16:49.269Z,9.50
2023-04-15T12:19:20.393Z,9.50
2023-04-15T12:21:51.507Z,9.50
2023-04-15T12:24:23.194Z,9.50
2023-04-15T12:26:53.276Z,9.50
2023-04-15T12:29:22.720Z,9.50
2023-04-15T12:31:52.424Z,9.50
2023-04-15T12:34:27.780Z,9.40
2023-04-15T12:36:57.955Z,9.40
2023-04-15T12:39:28.675Z,9.40
2023-04-15T12:41:59.082Z,9.40
2023-04-15T12:44:28.289Z,9.40
2023-04-15T12:46:56.745Z,9.40
2023-04-15T12:49:26.805Z,9.40
2023-04-15T12:51:59.591Z,9.50
2023-04-15T12:54:28.073Z,9.50
2023-04-15T12:56:57.254Z,9.50
2023-04-15T12:59:26.124Z,9.50
2023-04-15T13:01:56.299Z,9.50
2023-04-15T13:04:24.837Z,9.40
2023-04-15T13:06:53.283Z,9.50
2023-04-15T13:09:23.025Z,9.50
2023-04-15T13:11:51.863Z,9.50
2023-04-15T13:14:20.644Z,9.50
2023-04-15T13:16:49.041Z,9.50
2023-04-15T13:19:17.506Z,9.50
2023-04-15T13:21:46.074Z,9.50
2023-04-15T13:24:14.556Z,9.40
2023-04-15T13:26:44.679Z,9.40
2023-04-15T13:29:14.190Z,9.40
2023-04-15T13:31:42.912Z,9.40
2023-04-15T13:34:11.885Z,9.40
2023-04-15T13:36:40.189Z,9.40
2023-04-15T13:39:08.958Z,9.40
2023-04-15T13:41:37.517Z,9.50
2023-04-15T13:44:07.648Z,9.40
2023-04-15T13:46:36.299Z,9.40
2023-04-15T13:49:04.601Z,9.40
2023-04-15T13:51:33.643Z,9.50
2023-04-15T13:54:02.139Z,9.40
2023-04-15T13:56:32.263Z,9.40
2023-04-15T13:59:02.407Z,9.40
2023-04-15T14:01:32.578Z,9.30
2023-04-15T14:04:01.186Z,9.40
2023-04-15T14:06:31.745Z,9.30
2023-04-15T14:09:00.182Z,9.30
2023-04-15T14:11:28.470Z,9.30
2023-04-15T14:13:56.707Z,9.30
2023-04-15T14:16:25.083Z,9.30
2023-04-15T14:18:55.937Z,9.20
2023-04-15T14:21:24.264Z,9.30
2023-04-15T14:23:52.915Z,9.20
2023-04-15T14:26:21.872Z,9.30
2023-04-15T14:28:50.234Z,9.30
2023-04-15T14:31:18.749Z,9.20
2023-04-15T14:33:47.787Z,9.20
2023-04-15T14:36:17.750Z,9.30
2023-04-15T14:38:47.500Z,9.30
2023-04-15T14:41:17.581Z,9.30
2023-04-15T14:43:46.436Z,9.20
2023-04-15T14:46:14.979Z,9.20
2023-04-15T14:48:44.107Z,9.30
2023-04-15T14:51:12.473Z,9.30
2023-04-15T14:53:42.272Z,9.30
2023-04-15T14:56:10.869Z,9.20
2023-04-15T14:58:39.376Z,9.20
2023-04-15T15:01:08.042Z,9.20
2023-04-15T15:03:36.948Z,9.20
2023-04-15T15:06:05.696Z,9.10
2023-04-15T15:08:34.121Z,9.10
2023-04-15T15:11:04.008Z,9.10
2023-04-15T15:13:32.853Z,9.10
2023-04-15T15:16:01.376Z,9.00
2023-04-15T15:18:29.912Z,9.00
2023-04-15T15:20:58.770Z,9.00
2023-04-15T15:23:27.434Z,9.10
2023-04-15T15:25:56.217Z,9.00
2023-04-15T15:28:26.156Z,9.00
2023-04-15T15:30:55.274Z,8.90
2023-04-15T15:33:24.397Z,8.90
2023-04-15T15:35:53.116Z,8.80
2023-04-15T15:38:23.144Z,8.80
2023-04-15T15:40:52.396Z,8.80
2023-04-15T15:43:20.784Z,8.90
2023-04-15T15:45:53.021Z,8.90
2023-04-15T15:48:21.440Z,8.90
2023-04-15T15:50:50.106Z,8.90
2023-04-15T15:53:20.994Z,8.70
2023-04-15T15:55:51.132Z,8.80
2023-04-15T15:58:21.332Z,8.70
2023-04-15T16:00:51.290Z,8.70
2023-04-15T16:03:20.244Z,8.60
2023-04-15T16:05:48.666Z,8.60
2023-04-15T16:08:17.517Z,8.50
2023-04-15T16:10:46.683Z,8.60
2023-04-15T16:13:15.141Z,8.60
2023-04-15T16:15:43.678Z,8.60
2023-04-15T16:18:13.280Z,8.60
2023-04-15T16:20:42.017Z,8.60
2023-04-15T16:23:13.522Z,8.60
2023-04-15T16:25:43.572Z,8.50
2023-04-15T16:28:23.155Z,8.50
2023-04-15T16:30:54.684Z,8.50
2023-04-15T16:33:24.778Z,8.50
2023-04-15T16:35:53.236Z,8.60
2023-04-15T16:38:21.557Z,8.60
2023-04-15T16:40:49.955Z,8.50
2023-04-15T16:43:18.751Z,8.50
2023-04-15T16:45:51.232Z,8.50
2023-04-15T16:48:20.160Z,8.50
2023-04-15T16:50:50.363Z,8.50
2023-04-15T16:53:20.390Z,8.50
2023-04-15T16:55:50.400Z,8.60
2023-04-15T16:58:18.853Z,8.50
2023-04-15T17:00:47.292Z,8.50
2023-04-15T17:03:16.112Z,8.50
2023-04-15T17:05:46.443Z,8.40
2023-04-15T17:08:16.457Z,8.30
2023-04-15T17:10:44.866Z,8.30
2023-04-15T17:13:20.874Z,8.30
2023-04-15T17:15:49.648Z,8.40
2023-04-15T17:18:18.077Z,8.30
2023-04-15T17:20:46.730Z,8.40
2023-04-15T17:23:16.725Z,8.40
2023-04-15T17:25:45.146Z,8.40
2023-04-15T17:28:13.873Z,8.40
2023-04-15T17:30:42.324Z,8.40
2023-04-15T17:33:53.463Z,8.40
2023-04-15T17:35:59.422Z,8.30
2023-04-15T17:38:29.265Z,8.40
2023-04-15T17:40:57.829Z,8.30
2023-04-15T17:43:26.620Z,8.30
2023-04-15T17:45:55.877Z,8.30
2023-04-15T17:48:25.876Z,8.30
2023-04-15T17:50:54.242Z,8.30
2023-04-15T17:53:22.987Z,8.30
2023-04-15T17:55:53.784Z,8.30
2023-04-15T17:58:22.485Z,8.20
2023-04-15T18:00:51.232Z,8.20
2023-04-15T18:03:20.072Z,8.30
2023-04-15T18:05:48.527Z,8.30
2023-04-15T18:08:16.822Z,8.20
2023-04-15T18:10:45.813Z,8.20
2023-04-15T18:13:15.677Z,8.20
2023-04-15T18:15:45.672Z,8.10
2023-04-15T18:18:15.831Z,8.20
2023-04-15T18:20:44.355Z,8.20
2023-04-15T18:23:14.492Z,8.10
2023-04-15T18:25:45.199Z,8.10
2023-04-15T18:28:15.277Z,8.10
2023-04-15T18:30:43.651Z,8.10
2023-04-15T18:33:12.288Z,8.10
2023-04-15T18:35:42.820Z,8.10
2023-04-15T18:38:11.475Z,8.10
2023-04-15T18:40:41.107Z,8.10
2023-04-15T18:43:09.892Z,8.10
2023-04-15T18:45:39.683Z,8.00
2023-04-15T18:48:08.351Z,8.00
2023-04-15T18:50:36.953Z,8.10
2023-04-15T18:53:05.393Z,8.00
2023-04-15T18:55:34.283Z,8.00
2023-04-15T18:58:08.626Z,8.00
2023-04-15T19:00:42.427Z,8.10
2023-04-15T19:03:14.766Z,8.00
2023-04-15T19:05:43.371Z,8.00
2023-04-15T19:08:12.378Z,8.10
2023-04-15T19:10:41.146Z,8.10
2023-04-15T19:13:10.220Z,8.00
2023-04-15T19:15:38.789Z,8.00
2023-04-15T19:18:10.671Z,8.00
2023-04-15T19:20:41.421Z,8.00
2023-04-15T19:23:10.339Z,8.00
2023-04-15T19:25:39.185Z,8.00
2023-04-15T19:28:07.564Z,8.00
2023-04-15T19:30:36.485Z,8.00
2023-04-15T19:33:05.408Z,7.90
2023-04-15T19:35:34.207Z,8.00
2023-04-15T19:38:04.873Z,8.00
2023-04-15T19:40:35.537Z,8.00
2023-04-15T19:43:03.984Z,7.90
2023-04-15T19:45:34.222Z,8.00
2023-04-15T19:48:02.765Z,8.00
2023-04-15T19:50:31.248Z,8.00
2023-04-15T19:52:59.799Z,8.00
2023-04-15T19:55:29.750Z,7.90
2023-04-15T19:57:58.166Z,7.90
2023-04-15T20:00:26.750Z,7.90
2023-04-15T20:02:56.790Z,8.00
2023-04-15T20:05:25.581Z,7.90
2023-04-15T20:07:53.962Z,7.90
2023-04-15T20:10:23.045Z,8.00
2023-04-15T20:12:53.484Z,7.90
2023-04-15T20:15:23.884Z,7.90
2023-04-15T20:17:52.346Z,7.90
2023-04-15T20:20:21.632Z,7.90
2023-04-15T20:22:50.683Z,7.90
2023-04-15T20:25:19.111Z,7.90
2023-04-15T20:27:48.745Z,7.90
2023-04-15T20:30:18.493Z,7.90
2023-04-15T20:32:46.887Z,7.90
2023-04-15T20:35:15.048Z,7.90
2023-04-15T20:37:45.318Z,7.90
2023-04-15T20:40:15.929Z,7.90
2023-04-15T20:42:44.843Z,7.90
2023-04-15T20:45:14.001Z,8.00
2023-04-15T20:47:44.019Z,8.00
2023-04-15T20:50:13.235Z,7.90
2023-04-15T20:52:42.037Z,7.90
2023-04-15T20:55:11.246Z,8.00
2023-04-15T20:57:39.381Z,8.00
2023-04-15T21:00:10.930Z,7.90
2023-04-15T21:02:40.156Z,8.00
2023-04-15T21:05:12.036Z,8.00
2023-04-15T21:07:41.164Z,8.00
2023-04-15T21:10:10.705Z,8.00
2023-04-15T21:12:40.937Z,7.90
2023-04-15T21:15:10.974Z,7.90
2023-04-15T21:17:39.992Z,7.90
2023-04-15T21:20:11.449Z,7.90
2023-04-15T21:22:40.130Z,7.90
2023-04-15T21:25:10.027Z,7.90
2023-04-15T21:27:38.540Z,7.90
2023-04-15T21:30:08.417Z,7.90
2023-04-15T21:32:38.741Z,7.90
2023-04-15T21:35:12.792Z,7.90
2023-04-15T21:37:41.229Z,7.90
2023-04-15T21:40:10.827Z,7.90
2023-04-15T21:42:39.240Z,7.90
2023-04-15T21:45:08.484Z,8.00
2023-04-15T21:48:00.745Z,7.90
2023-04-15T23:30:14.904Z,8.00
2023-04-15T23:32:43.109Z,8.00
2023-04-15T23:35:11.337Z,7.90
2023-04-15T23:37:39.401Z,7.80
2023-04-15T23:40:08.800Z,7.80
2023-04-15T23:42:36.896Z,7.90
2023-04-15T23:45:05.472Z,7.90
2023-04-15T23:47:35.032Z,7.80
2023-04-15T23:50:03.982Z,7.80
2023-04-15T23:52:32.034Z,7.90
2023-04-15T23:55:00.297Z,7.90
2023-04-15T23:57:28.444Z,7.90
2023-04-15T23:59:56.773Z,7.90
